Terminal Aerodrome Forecast
Issued by NWS Huntsville, AL

Home | Current Version | Previous Version | Text Only | Print | Product List | Glossary On
Versions: 1 2 3 4 5 6 7 8 9 10 11 12 13 14 15 16
000
FTUS44 KHUN 252320
TAFMSL
TAF
KMSL 252320Z 2600/2624 18006KT P6SM VCSH BKN080 OVC090
     FM260300 16010G15KT P6SM -SHRA BKN015 BKN025 OVC090
     FM261000 18010KT P6SM BKN008 BKN025 OVC070
     FM261500 22010KT P6SM BKN020 OVC040
     FM261800 23012G18KT P6SM BKN040=

USA.gov is the U.S. government's official web portal to all federal, state and local government web resources and services.